West Babylon, New York
Current Conditions -  °F | °C
As of 7:56 PM on Wednesday 26 Nov 2014 (Local Time) from KISP Reporting Station
Light Rain Light Rain  
Wind Chill: 27°   Ceiling: 900
Heat Index: 37°   Visibility: 4mi
Dew Point: 34°   Wind: 18mph
Humidity: 89%   Direction: 360°N
Pressure: 29.7"   Gusts: 29mph
Location:  40.7°N, 73.35°W
Report Text: KISP 270056Z 36016G25KT 4SM -RA BR BKN009 BKN016 OVC020 03/01 A2970 RMK AO2 PK WND 01026/0011 SLP056 P0002 T00280011
Loading
Personal Weather Stations






























Interactive Weather Map New forecast layout! Learn more

10-Day Weather Forecast

Advertisements
Track Severe Weather on mobile